createdAt,value
2022-12-24T00:02:00.025Z,38.58
2022-12-24T00:04:35.064Z,47.88
2022-12-24T00:07:08.920Z,45.65
2022-12-24T00:09:42.481Z,49.05
2022-12-24T00:12:16.155Z,52.58
2022-12-24T00:14:49.713Z,52.40
2022-12-24T00:17:23.692Z,42.97
2022-12-24T00:19:58.950Z,42.65
2022-12-24T00:22:32.606Z,37.03
2022-12-24T00:25:07.277Z,43.58
2022-12-24T00:27:40.827Z,39.38
2022-12-24T00:30:14.996Z,36.05
2022-12-24T00:32:48.709Z,46.83
2022-12-24T00:35:24.072Z,33.05
2022-12-24T00:37:57.880Z,39.88
2022-12-24T00:40:32.113Z,36.03
2022-12-24T00:43:06.247Z,30.70
2022-12-24T00:45:39.863Z,32.88
2022-12-24T00:48:13.873Z,34.28
2022-12-24T00:50:49.129Z,35.28
2022-12-24T00:53:23.312Z,37.17
2022-12-24T00:55:56.988Z,36.78
2022-12-24T00:58:31.025Z,30.75
2022-12-24T01:01:05.094Z,35.08
2022-12-24T01:03:39.315Z,32.13
2022-12-24T01:06:15.782Z,31.08
2022-12-24T01:08:52.303Z,31.00
2022-12-24T01:11:26.392Z,36.20
2022-12-24T01:14:00.041Z,28.98
2022-12-24T01:16:34.272Z,36.13
2022-12-24T01:19:07.945Z,29.38
2022-12-24T01:21:43.338Z,31.95
2022-12-24T01:24:18.146Z,29.55
2022-12-24T01:26:51.788Z,32.67
2022-12-24T01:29:25.743Z,34.90
2022-12-24T01:31:59.533Z,28.02
2022-12-24T01:34:33.764Z,24.85
2022-12-24T01:37:09.069Z,24.25
2022-12-24T01:39:48.767Z,21.73
2022-12-24T01:42:46.831Z,21.60
2022-12-24T01:50:18.488Z,11.43
2022-12-24T01:53:04.824Z,12.15
2022-12-24T01:55:42.830Z,14.80
2022-12-24T01:58:20.742Z,6.28
2022-12-24T02:00:55.079Z,16.63
2022-12-24T02:03:29.573Z,14.65
2022-12-24T02:06:04.258Z,18.55
2022-12-24T02:08:42.709Z,17.58
2022-12-24T02:11:19.702Z,17.02
2022-12-24T02:14:01.678Z,18.85
2022-12-24T02:16:45.241Z,16.20
2022-12-24T02:19:42.335Z,16.02
2022-12-24T02:22:18.362Z,20.30
2022-12-24T02:25:15.100Z,20.48
2022-12-24T02:27:58.180Z,20.92
2022-12-24T02:30:40.217Z,21.35
2022-12-24T02:33:24.969Z,21.33
2022-12-24T02:36:04.263Z,16.17
2022-12-24T02:38:42.806Z,16.75
2022-12-24T02:41:23.518Z,17.40
2022-12-24T02:43:58.865Z,17.88
2022-12-24T02:46:34.558Z,18.02
2022-12-24T02:49:08.703Z,17.60
2022-12-24T02:51:42.370Z,19.30
2022-12-24T02:54:17.311Z,20.00
2022-12-24T02:57:05.533Z,16.20
2022-12-24T03:00:12.104Z,15.52
2022-12-24T03:03:03.532Z,15.05
2022-12-24T03:05:43.858Z,15.10
2022-12-24T03:08:28.233Z,16.83
2022-12-24T03:11:05.112Z,16.70
2022-12-24T03:13:39.701Z,13.98
2022-12-24T03:16:16.745Z,14.75
2022-12-24T03:18:54.174Z,15.10
2022-12-24T03:21:30.585Z,14.70
2022-12-24T03:24:04.894Z,14.90
2022-12-24T03:26:39.880Z,15.02
2022-12-24T03:29:13.705Z,15.00
2022-12-24T03:31:50.308Z,14.05
2022-12-24T03:34:25.329Z,13.60
2022-12-24T03:36:59.055Z,13.40
2022-12-24T03:39:33.189Z,14.93
2022-12-24T03:42:06.803Z,19.08
2022-12-24T03:44:40.535Z,18.60
2022-12-24T03:47:14.066Z,14.93
2022-12-24T03:49:49.450Z,15.52
2022-12-24T03:52:23.063Z,17.02
2022-12-24T03:54:57.018Z,14.18
2022-12-24T03:57:30.810Z,17.83
2022-12-24T04:00:05.362Z,13.23
2022-12-24T04:02:45.649Z,16.05
2022-12-24T04:05:21.996Z,16.42
2022-12-24T04:07:55.783Z,15.93
2022-12-24T04:10:29.567Z,13.63
2022-12-24T04:13:03.108Z,17.55
2022-12-24T04:15:36.594Z,15.27
2022-12-24T04:18:10.382Z,13.73
2022-12-24T04:20:45.978Z,15.27
2022-12-24T04:23:19.449Z,12.45
2022-12-24T04:25:53.189Z,11.30
2022-12-24T04:28:26.880Z,19.17
2022-12-24T04:31:00.919Z,17.55
2022-12-24T04:33:34.878Z,12.65
2022-12-24T04:36:13.339Z,15.70
2022-12-24T04:38:48.035Z,15.80
2022-12-24T04:41:24.904Z,14.50
2022-12-24T04:43:59.958Z,16.42
2022-12-24T04:46:33.761Z,15.20
2022-12-24T04:49:07.431Z,20.15
2022-12-24T04:51:42.478Z,19.35
2022-12-24T04:54:16.195Z,13.55
2022-12-24T04:56:49.806Z,12.68
2022-12-24T04:59:23.825Z,16.33
2022-12-24T05:01:57.454Z,15.65
2022-12-24T05:04:32.189Z,19.20
2022-12-24T05:07:07.293Z,16.27
2022-12-24T05:09:40.938Z,16.08
2022-12-24T05:12:14.709Z,14.20
2022-12-24T05:14:48.245Z,16.60
2022-12-24T05:17:22.215Z,17.00
2022-12-24T05:19:55.721Z,16.63
2022-12-24T05:22:47.786Z,13.50
2022-12-24T05:25:39.031Z,15.48
2022-12-24T05:28:12.641Z,12.80
2022-12-24T05:30:46.233Z,10.77
2022-12-24T05:33:19.812Z,12.52
2022-12-24T05:35:53.666Z,14.52
2022-12-24T05:38:28.751Z,14.05
2022-12-24T05:41:02.346Z,13.73
2022-12-24T05:43:36.286Z,21.52
2022-12-24T05:46:12.495Z,15.55
2022-12-24T05:48:46.109Z,10.40
2022-12-24T05:51:22.378Z,13.25
2022-12-24T05:53:57.407Z,12.05
2022-12-24T05:56:31.412Z,12.63
2022-12-24T05:59:05.096Z,11.52
2022-12-24T06:01:38.920Z,11.63
2022-12-24T06:04:12.874Z,11.55
2022-12-24T06:06:46.550Z,10.60
2022-12-24T06:09:22.015Z,12.98
2022-12-24T06:11:55.967Z,11.23
2022-12-24T06:14:31.714Z,13.20
2022-12-24T06:21:12.985Z,13.43
2022-12-24T06:24:16.709Z,15.30
2022-12-24T06:26:52.909Z,11.93
2022-12-24T06:29:36.510Z,11.73
2022-12-24T06:32:22.665Z,12.45
2022-12-24T06:35:26.722Z,12.65
2022-12-24T06:38:02.150Z,12.88
2022-12-24T06:40:35.792Z,14.93
2022-12-24T06:43:18.288Z,12.00
2022-12-24T06:48:26.859Z,9.32
2022-12-24T06:51:03.037Z,13.20
2022-12-24T06:53:36.717Z,14.02
2022-12-24T06:56:12.372Z,12.52
2022-12-24T06:58:47.626Z,11.05
2022-12-24T07:01:22.277Z,10.23
2022-12-24T07:03:56.828Z,9.60
2022-12-24T07:06:32.384Z,11.27
2022-12-24T07:09:06.643Z,12.15
2022-12-24T07:11:40.246Z,12.57
2022-12-24T07:14:18.038Z,11.30
2022-12-24T07:16:58.641Z,17.65
2022-12-24T07:19:32.898Z,15.10
2022-12-24T07:22:13.372Z,13.93
2022-12-24T07:27:22.568Z,11.60
2022-12-24T07:29:57.848Z,12.23
2022-12-24T07:32:31.851Z,9.93
2022-12-24T07:35:06.021Z,12.00
2022-12-24T07:37:39.898Z,9.55
2022-12-24T07:40:13.936Z,9.82
2022-12-24T07:42:47.549Z,12.15
2022-12-24T07:45:22.838Z,8.75
2022-12-24T07:47:56.775Z,10.95
2022-12-24T07:50:30.592Z,10.43
2022-12-24T07:53:04.204Z,11.50
2022-12-24T07:55:40.888Z,11.73
2022-12-24T07:58:19.709Z,10.38
2022-12-24T08:00:59.259Z,11.00
2022-12-24T08:03:33.007Z,10.82
2022-12-24T08:06:07.278Z,9.75
2022-12-24T08:08:40.920Z,10.75
2022-12-24T08:11:15.038Z,12.75
2022-12-24T08:13:48.632Z,9.85
2022-12-24T08:16:26.205Z,10.50
2022-12-24T08:18:59.839Z,14.43
2022-12-24T08:21:33.450Z,10.18
2022-12-24T08:24:09.328Z,11.90
2022-12-24T08:26:43.635Z,10.20
2022-12-24T08:29:17.309Z,8.38
2022-12-24T08:31:52.537Z,11.68
2022-12-24T08:34:30.791Z,12.30
2022-12-24T08:37:04.618Z,14.82
2022-12-24T08:39:39.379Z,9.65
2022-12-24T08:42:22.795Z,8.95
2022-12-24T08:44:56.409Z,7.65
2022-12-24T08:47:31.551Z,9.57
2022-12-24T08:50:06.058Z,7.70
2022-12-24T08:52:39.769Z,9.57
2022-12-24T08:55:13.758Z,9.52
2022-12-24T08:57:47.388Z,9.65
2022-12-24T09:00:21.472Z,9.43
2022-12-24T09:02:57.743Z,10.55
2022-12-24T09:05:37.455Z,12.02
2022-12-24T09:08:11.158Z,11.98
2022-12-24T09:10:44.786Z,11.55
2022-12-24T09:13:18.562Z,11.23
2022-12-24T09:15:56.073Z,9.38
2022-12-24T09:18:31.614Z,10.90
2022-12-24T09:21:07.859Z,8.98
2022-12-24T09:23:44.556Z,9.25
2022-12-24T09:26:21.019Z,9.20
2022-12-24T09:28:55.391Z,9.77
2022-12-24T09:31:29.897Z,8.57
2022-12-24T09:34:05.302Z,6.53
2022-12-24T09:36:39.047Z,4.85
2022-12-24T09:39:12.823Z,5.35
2022-12-24T09:41:53.984Z,5.78
2022-12-24T09:44:40.083Z,8.55
2022-12-24T09:47:25.162Z,7.65
2022-12-24T09:50:06.391Z,7.18
2022-12-24T09:52:44.406Z,7.32
2022-12-24T09:55:26.646Z,8.32
2022-12-24T09:58:02.322Z,6.97
2022-12-24T10:00:39.765Z,7.10
2022-12-24T10:03:17.590Z,7.65
2022-12-24T10:06:05.706Z,8.45
2022-12-24T10:09:11.045Z,6.65
2022-12-24T10:11:52.275Z,7.78
2022-12-24T10:14:53.724Z,8.25
2022-12-24T10:17:55.649Z,8.55
2022-12-24T10:25:08.659Z,7.78
2022-12-24T10:27:42.249Z,6.88
2022-12-24T10:30:19.843Z,7.32
2022-12-24T10:32:56.327Z,8.13
2022-12-24T10:35:43.750Z,10.55
2022-12-24T10:38:26.899Z,8.90
2022-12-24T10:41:31.027Z,9.77
2022-12-24T10:44:06.804Z,9.55
2022-12-24T10:46:42.457Z,6.68
2022-12-24T10:49:22.563Z,7.43
2022-12-24T10:52:07.135Z,5.85
2022-12-24T10:55:11.126Z,7.25
2022-12-24T10:58:10.946Z,8.55
2022-12-24T11:04:01.031Z,12.20
2022-12-24T11:06:52.815Z,8.98
2022-12-24T11:09:29.118Z,9.45
2022-12-24T11:12:09.350Z,10.23
2022-12-24T11:16:00.073Z,10.27
2022-12-24T11:18:41.556Z,12.10
2022-12-24T11:21:25.785Z,13.07
2022-12-24T11:24:31.956Z,18.58
2022-12-24T11:27:34.074Z,52.00
2022-12-24T11:30:32.157Z,43.33
2022-12-24T11:33:20.808Z,21.95
2022-12-24T11:36:03.751Z,18.85
2022-12-24T11:38:38.141Z,9.25
2022-12-24T11:41:13.138Z,6.88
2022-12-24T11:43:49.183Z,7.28
2022-12-24T11:46:37.891Z,7.80
2022-12-24T11:49:18.977Z,8.63
2022-12-24T11:52:22.276Z,8.10
2022-12-24T11:55:16.336Z,11.75
2022-12-24T11:57:57.479Z,11.50
2022-12-24T12:00:31.569Z,13.75
2022-12-24T12:03:12.242Z,14.30
2022-12-24T12:05:46.043Z,12.88
2022-12-24T12:08:23.447Z,12.68
2022-12-24T12:10:59.501Z,15.27
2022-12-24T12:13:34.389Z,14.43
2022-12-24T12:16:18.375Z,13.80
2022-12-24T12:18:57.003Z,16.00
2022-12-24T12:21:55.514Z,16.75
2022-12-24T12:24:37.911Z,16.00
2022-12-24T12:27:32.887Z,17.02
2022-12-24T12:30:13.338Z,18.63
2022-12-24T12:32:58.910Z,17.55
2022-12-24T12:35:36.725Z,17.08
2022-12-24T12:38:16.820Z,18.23
2022-12-24T12:41:07.905Z,16.48
2022-12-24T12:43:58.984Z,15.90
2022-12-24T12:46:47.132Z,15.35
2022-12-24T12:49:34.067Z,16.45
2022-12-24T12:52:19.639Z,15.07
2022-12-24T12:55:05.744Z,19.45
2022-12-24T12:57:42.065Z,18.50
2022-12-24T13:00:23.772Z,24.10
2022-12-24T13:03:25.867Z,22.55
2022-12-24T13:06:27.956Z,27.45
2022-12-24T13:09:34.391Z,26.58
2022-12-24T13:12:35.127Z,26.02
2022-12-24T13:15:39.661Z,25.67
2022-12-24T13:18:41.767Z,21.80
2022-12-24T13:21:19.491Z,24.13
2022-12-24T13:24:06.908Z,16.73
2022-12-24T13:26:41.197Z,23.20
2022-12-24T13:29:53.881Z,25.52
2022-12-24T13:32:52.024Z,29.02
2022-12-24T13:35:39.747Z,38.38
2022-12-24T13:38:42.351Z,37.95
2022-12-24T13:41:58.769Z,44.83
2022-12-24T13:44:35.226Z,43.15
2022-12-24T13:47:32.284Z,43.63
2022-12-24T13:50:24.172Z,34.78
2022-12-24T13:52:57.850Z,35.53
2022-12-24T13:55:32.029Z,35.38
2022-12-24T13:58:07.798Z,42.05
2022-12-24T14:00:44.938Z,37.80
2022-12-24T14:03:25.494Z,26.85
2022-12-24T14:06:03.052Z,27.60
2022-12-24T14:08:40.724Z,38.55
2022-12-24T14:11:16.652Z,30.70
2022-12-24T14:14:11.745Z,26.35
2022-12-24T14:16:51.513Z,34.78
2022-12-24T14:19:33.664Z,42.15
2022-12-24T14:22:29.252Z,30.55
2022-12-24T14:25:08.832Z,21.30
2022-12-24T14:27:48.255Z,19.35
2022-12-24T14:30:24.738Z,12.48
2022-12-24T14:32:58.669Z,14.60
2022-12-24T14:35:39.532Z,25.75
2022-12-24T14:38:19.093Z,24.23
2022-12-24T14:41:00.326Z,51.25
2022-12-24T14:43:48.878Z,22.25
2022-12-24T14:46:30.150Z,9.55
2022-12-24T14:49:12.738Z,7.25
2022-12-24T14:51:58.546Z,9.30
2022-12-24T14:54:40.078Z,11.25
2022-12-24T14:57:23.203Z,19.90
2022-12-24T14:59:58.864Z,4.18
2022-12-24T15:02:40.713Z,11.60
2022-12-24T15:05:19.088Z,7.45
2022-12-24T15:07:58.275Z,6.90
2022-12-24T15:10:36.893Z,21.83
2022-12-24T15:13:19.842Z,13.90
2022-12-24T15:15:55.242Z,6.38
2022-12-24T15:18:32.939Z,4.20
2022-12-24T15:21:15.108Z,19.33
2022-12-24T15:23:52.392Z,6.25
2022-12-24T15:27:27.163Z,3.70
2022-12-24T15:44:51.070Z,2.92
2022-12-24T15:47:54.702Z,3.95
2022-12-24T16:10:30.178Z,3.50
2022-12-24T16:13:05.197Z,3.45
2022-12-24T16:15:46.676Z,2.60
2022-12-24T16:18:29.146Z,2.70
2022-12-24T16:21:05.294Z,3.53
2022-12-24T16:27:37.032Z,5.40
2022-12-24T16:30:13.518Z,4.70
2022-12-24T16:32:56.027Z,4.20
2022-12-24T16:39:02.470Z,3.42
2022-12-24T16:45:51.243Z,6.07
2022-12-24T16:48:27.640Z,5.33
2022-12-24T16:51:02.342Z,3.95
2022-12-24T16:53:35.978Z,3.75
2022-12-24T16:56:29.854Z,3.28
2022-12-24T16:59:03.806Z,3.90
2022-12-24T17:01:39.073Z,2.72
2022-12-24T17:04:12.906Z,2.35
2022-12-24T17:07:44.431Z,3.08
2022-12-24T17:10:21.979Z,3.47
2022-12-24T17:13:05.016Z,3.83
2022-12-24T17:15:52.128Z,3.45
2022-12-24T17:19:41.386Z,6.05
2022-12-24T17:22:16.517Z,4.13
2022-12-24T17:24:50.304Z,5.25
2022-12-24T17:27:24.153Z,4.88
2022-12-24T17:29:57.771Z,4.10
2022-12-24T17:32:32.546Z,3.35
2022-12-24T17:35:10.231Z,3.00
2022-12-24T17:37:45.832Z,5.22
2022-12-24T17:40:19.681Z,5.32
2022-12-24T17:42:53.300Z,6.75
2022-12-24T17:45:27.480Z,6.22
2022-12-24T17:48:01.092Z,4.13
2022-12-24T17:50:40.520Z,4.13
2022-12-24T17:53:15.898Z,3.67
2022-12-24T17:55:49.645Z,4.55
2022-12-24T17:58:23.925Z,3.72
2022-12-24T18:00:58.268Z,4.18
2022-12-24T18:03:32.064Z,3.90
2022-12-24T18:06:07.214Z,4.43
2022-12-24T18:08:43.657Z,4.15
2022-12-24T18:11:45.875Z,4.25
2022-12-24T18:14:20.195Z,4.40
2022-12-24T18:16:53.954Z,5.45
2022-12-24T18:20:28.970Z,4.72
2022-12-24T18:23:03.823Z,4.78
2022-12-24T18:25:39.472Z,8.05
2022-12-24T18:28:13.169Z,8.52
2022-12-24T18:30:46.778Z,8.82
2022-12-24T18:33:20.367Z,6.93
2022-12-24T18:35:54.060Z,5.45
2022-12-24T18:38:27.808Z,5.65
2022-12-24T18:41:06.145Z,5.38
2022-12-24T18:43:39.950Z,5.70
2022-12-24T18:46:18.373Z,4.85
2022-12-24T18:48:56.187Z,4.55
2022-12-24T18:51:32.292Z,3.25
2022-12-24T18:54:06.372Z,3.13
2022-12-24T18:56:41.694Z,4.47
2022-12-24T18:59:15.405Z,3.75
2022-12-24T19:01:49.200Z,3.30
2022-12-24T19:04:23.095Z,3.15
2022-12-24T19:06:56.768Z,3.65
2022-12-24T19:09:30.455Z,5.50
2022-12-24T19:12:06.024Z,4.15
2022-12-24T19:14:39.721Z,3.15
2022-12-24T19:17:13.404Z,4.20
2022-12-24T19:19:49.859Z,3.47
2022-12-24T19:22:23.676Z,3.78
2022-12-24T19:24:57.437Z,5.85
2022-12-24T19:27:32.658Z,9.65
2022-12-24T19:30:07.665Z,9.90
2022-12-24T19:32:41.511Z,8.68
2022-12-24T19:35:20.216Z,17.52
2022-12-24T19:37:53.900Z,15.10
2022-12-24T19:40:28.789Z,13.82
2022-12-24T19:43:03.916Z,21.05
2022-12-24T19:45:37.758Z,13.15
2022-12-24T19:48:11.459Z,14.02
2022-12-24T19:50:45.039Z,14.02
2022-12-24T19:53:18.781Z,11.93
2022-12-24T19:55:52.401Z,14.52
2022-12-24T19:58:27.835Z,13.90
2022-12-24T20:01:12.792Z,18.42
2022-12-24T20:03:49.394Z,17.02
2022-12-24T20:06:25.804Z,16.15
2022-12-24T20:09:01.252Z,14.00
2022-12-24T20:11:36.448Z,17.13
2022-12-24T20:14:13.703Z,15.98
2022-12-24T20:16:47.487Z,13.48
2022-12-24T20:19:21.351Z,14.13
2022-12-24T20:21:55.208Z,12.27
2022-12-24T20:24:29.153Z,11.07
2022-12-24T20:27:03.267Z,14.75
2022-12-24T20:29:38.532Z,12.77
2022-12-24T20:32:12.466Z,15.35
2022-12-24T20:34:46.354Z,12.63
2022-12-24T20:37:20.088Z,13.88
2022-12-24T20:39:55.473Z,13.07
2022-12-24T20:42:31.522Z,7.68
2022-12-24T20:45:07.714Z,36.33
2022-12-24T20:47:41.312Z,17.17
2022-12-24T20:50:15.899Z,25.40
2022-12-24T20:52:49.483Z,22.13
2022-12-24T20:55:23.098Z,33.35
2022-12-24T20:57:56.930Z,30.75
2022-12-24T21:00:32.063Z,31.33
2022-12-24T21:03:05.987Z,29.17
2022-12-24T21:05:41.887Z,34.00
2022-12-24T21:08:16.004Z,29.55
2022-12-24T21:11:09.703Z,27.75
2022-12-24T21:13:43.191Z,33.25
2022-12-24T21:16:18.328Z,26.52
2022-12-24T21:18:51.992Z,27.10
2022-12-24T21:21:25.650Z,28.50
2022-12-24T21:23:59.681Z,29.67
2022-12-24T21:26:34.166Z,29.58
2022-12-24T21:29:09.198Z,32.67
2022-12-24T21:31:44.239Z,35.65
2022-12-24T21:34:17.776Z,41.38
2022-12-24T21:36:51.476Z,46.83
2022-12-24T21:39:25.136Z,37.88
2022-12-24T21:41:58.797Z,39.80
2022-12-24T21:44:32.428Z,65.55
2022-12-24T21:47:07.994Z,43.58
2022-12-24T21:49:59.281Z,34.15
2022-12-24T21:52:32.795Z,32.90
2022-12-24T21:55:05.663Z,31.27
2022-12-24T21:57:54.337Z,29.25
2022-12-24T22:00:30.869Z,30.70
2022-12-24T22:03:06.045Z,33.00
2022-12-24T22:05:39.749Z,35.83
2022-12-24T22:08:30.416Z,34.72
2022-12-24T22:11:22.292Z,27.13
2022-12-24T22:13:55.810Z,29.42
2022-12-24T22:16:30.420Z,26.52
2022-12-24T22:19:05.572Z,30.08
2022-12-24T22:21:39.206Z,25.83
2022-12-24T22:24:12.831Z,29.33
2022-12-24T22:26:46.515Z,27.75
2022-12-24T22:29:20.058Z,27.52
2022-12-24T22:31:53.799Z,23.20
2022-12-24T22:34:28.770Z,25.85
2022-12-24T22:37:02.279Z,26.70
2022-12-24T22:39:35.808Z,26.60
2022-12-24T22:42:09.376Z,22.17
2022-12-24T22:44:42.945Z,22.17
2022-12-24T22:47:16.485Z,24.10
2022-12-24T22:49:51.472Z,26.08
2022-12-24T22:52:25.129Z,24.70
2022-12-24T22:54:58.691Z,22.83
2022-12-24T22:57:32.415Z,21.45
2022-12-24T23:00:11.747Z,23.90
2022-12-24T23:02:45.471Z,18.45
2022-12-24T23:05:20.832Z,20.88
2022-12-24T23:07:54.378Z,28.42
2022-12-24T23:10:27.919Z,24.67
2022-12-24T23:13:18.730Z,21.80
2022-12-24T23:15:52.553Z,26.35
2022-12-24T23:18:26.277Z,24.23
2022-12-24T23:21:06.359Z,30.42
2022-12-24T23:23:39.917Z,25.65
2022-12-24T23:26:16.271Z,35.58
2022-12-24T23:28:50.311Z,23.63
2022-12-24T23:31:24.847Z,23.27
2022-12-24T23:33:58.569Z,27.63
2022-12-24T23:36:33.626Z,22.85
2022-12-24T23:39:07.595Z,30.17
2022-12-24T23:41:41.292Z,26.98
2022-12-24T23:44:14.917Z,27.52
2022-12-24T23:46:48.692Z,29.08
2022-12-24T23:49:22.264Z,24.48
2022-12-24T23:51:57.227Z,29.25
2022-12-24T23:54:30.870Z,22.25
2022-12-24T23:57:04.706Z,30.95
2022-12-24T23:59:38.413Z,35.40
